TimeGMT,TemperatureF,Dew PointF,Humidity,Sea Level PressureIn,VisibilityMPH,Wind Direction,Wind SpeedMPH,Gust SpeedMPH,PrecipitationIn,Events,Conditions,WindDirDegrees,DateUTC
12:20 AM,32.0,24.8,75,29.47,6.2,NNE,9.2,-,N/A,,Mostly Cloudy,30,2013-01-20 00:20:00
12:50 AM,32.0,24.8,75,29.47,6.2,NNE,9.2,-,N/A,,Mostly Cloudy,30,2013-01-20 00:50:00
1:20 AM,30.2,24.8,80,29.47,6.2,NNE,8.1,-,N/A,,Overcast,30,2013-01-20 01:20:00
1:50 AM,30.2,24.8,80,29.44,5.0,NNE,9.2,-,N/A,,Overcast,30,2013-01-20 01:50:00
2:20 AM,30.2,26.6,86,29.44,4.3,NE,9.2,-,N/A,,Mostly Cloudy,40,2013-01-20 02:20:00
2:50 AM,30,26,77,29.46,6,NE,11.5,,,,Unknown Precipitation,40,2013-01-20 02:50:00
2:50 AM,30.2,24.8,80,29.44,6.2,NE,9.2,-,N/A,,Mostly Cloudy,40,2013-01-20 02:50:00
3:20 AM,30.2,24.8,80,29.44,6.2,NE,9.2,-,N/A,,Mostly Cloudy,40,2013-01-20 03:20:00
3:50 AM,30.2,24.8,80,29.44,6.2,NE,11.5,-,N/A,,Mostly Cloudy,40,2013-01-20 03:50:00
4:20 AM,30.2,24.8,80,29.44,6.2,NNE,9.2,-,N/A,,Mostly Cloudy,30,2013-01-20 04:20:00
4:50 AM,30.2,26.6,86,29.44,5.6,NE,8.1,-,N/A,,Mostly Cloudy,40,2013-01-20 04:50:00
5:20 AM,30.2,26.6,86,29.42,5.6,NNE,9.2,-,N/A,,Mostly Cloudy,30,2013-01-20 05:20:00
5:50 AM,30,26,78,29.44,7,NNE,10.4,,,,Unknown Precipitation,30,2013-01-20 05:50:00
5:50 AM,30.2,26.6,86,29.42,5.6,NE,8.1,-,N/A,,Mostly Cloudy,40,2013-01-20 05:50:00
6:20 AM,30.2,26.6,86,29.42,5.6,NE,10.4,-,N/A,,Mostly Cloudy,50,2013-01-20 06:20:00
6:50 AM,30.2,26.6,86,29.42,5.0,NE,8.1,-,N/A,,Overcast,40,2013-01-20 06:50:00
7:20 AM,30.2,26.6,86,29.42,5.0,NE,8.1,-,N/A,,Overcast,50,2013-01-20 07:20:00
7:50 AM,30.2,26.6,86,29.42,5.0,NE,8.1,-,N/A,,Overcast,40,2013-01-20 07:50:00
8:20 AM,30.2,26.6,86,29.42,4.3,NNE,8.1,-,N/A,,Overcast,30,2013-01-20 08:20:00
8:50 AM,29,27,87,29.43,2,NNE,8.1,,,Snow,Light Snow Showers,20,2013-01-20 08:50:00
8:50 AM,30.2,26.6,86,29.42,2.2,NNE,6.9,-,N/A,Snow,Light Snow,30,2013-01-20 08:50:00
9:20 AM,28.4,28.4,100,29.42,1.6,North,5.8,-,N/A,Snow,Light Snow,360,2013-01-20 09:20:00
9:50 AM,28.4,28.4,100,29.42,1.5,North,5.8,-,N/A,Snow,Light Snow,360,2013-01-20 09:50:00
10:20 AM,30.2,28.4,93,29.42,1.2,North,5.8,-,N/A,Snow,Light Snow,10,2013-01-20 10:20:00
10:50 AM,30.2,28.4,93,29.42,1.3,North,5.8,-,N/A,Snow,Light Snow,10,2013-01-20 10:50:00
11:20 AM,30.2,28.4,93,29.39,1.3,NNE,5.8,-,N/A,Snow,Light Snow,20,2013-01-20 11:20:00
11:50 AM,31,29,89,29.39,1,NNE,6.9,,,Snow,Light Snow,20,2013-01-20 11:50:00
11:50 AM,30.2,28.4,93,29.39,1.3,NNE,5.8,-,N/A,Snow,Light Snow,20,2013-01-20 11:50:00
12:20 PM,30.2,30.2,100,29.36,0.9,North,5.8,-,N/A,Snow,Snow,10,2013-01-20 12:20:00
12:50 PM,30.2,30.2,100,29.36,0.9,North,4.6,-,N/A,Snow,Snow,10,2013-01-20 12:50:00
1:20 PM,30.2,30.2,100,29.36,0.9,North,5.8,-,N/A,Snow,Snow,360,2013-01-20 13:20:00
1:50 PM,30.2,30.2,100,29.36,1.1,North,4.6,-,N/A,Snow,Snow,10,2013-01-20 13:50:00
2:20 PM,32.0,30.2,93,29.36,1.4,North,4.6,-,N/A,Snow,Light Snow,360,2013-01-20 14:20:00
2:50 PM,31,30,95,29.35,1,North,5.8,,,,Light Ice Pellets,350,2013-01-20 14:50:00
2:50 PM,32.0,30.2,93,29.36,1.3,North,4.6,-,N/A,Snow,Light Snow,350,2013-01-20 14:50:00
3:20 PM,32.0,30.2,93,29.33,1.1,North,4.6,-,N/A,Snow,Light Snow,360,2013-01-20 15:20:00
3:50 PM,32.0,30.2,93,29.33,1.6,North,4.6,-,N/A,Snow,Light Snow,350,2013-01-20 15:50:00
4:20 PM,32.0,30.2,93,29.33,1.6,Variable,3.5,-,N/A,Snow,Light Snow,0,2013-01-20 16:20:00
4:50 PM,32.0,30.2,93,29.33,1.6,Variable,3.5,-,N/A,Snow,Light Snow,0,2013-01-20 16:50:00
5:20 PM,32.0,30.2,93,29.33,1.6,North,4.6,-,N/A,Snow,Light Snow,350,2013-01-20 17:20:00
5:50 PM,31,30,96,29.33,2,North,4.6,,,Snow,Light Snow,350,2013-01-20 17:50:00
5:50 PM,32.0,30.2,93,29.33,1.9,North,4.6,-,N/A,Snow,Light Snow,350,2013-01-20 17:50:00
6:20 PM,32.0,30.2,93,29.33,2.5,Variable,3.5,-,N/A,Snow,Light Snow,0,2013-01-20 18:20:00
6:50 PM,32.0,30.2,93,29.30,3.7,North,4.6,-,N/A,Snow,Light Snow,350,2013-01-20 18:50:00
7:20 PM,30.2,30.2,100,29.30,3.7,North,3.5,-,N/A,Snow,Light Snow,360,2013-01-20 19:20:00
7:50 PM,30.2,30.2,100,29.30,3.1,North,4.6,-,N/A,Snow,Light Snow,360,2013-01-20 19:50:00
8:20 PM,30.2,30.2,100,29.30,-9999.0,North,4.6,-,N/A,Snow,Light Snow,350,2013-01-20 20:20:00
8:50 PM,31,30,93,29.31,2,NNW,3.5,,,Snow,Light Snow,340,2013-01-20 20:50:00
8:50 PM,30.2,30.2,100,29.30,-9999.0,North,3.5,-,N/A,Snow,Light Snow,350,2013-01-20 20:50:00
9:20 PM,30.2,30.2,100,29.30,-9999.0,Variable,2.3,-,N/A,Snow,Light Snow,0,2013-01-20 21:20:00
9:50 PM,30.2,30.2,100,29.30,-9999.0,NW,3.5,-,N/A,Snow,Light Snow,310,2013-01-20 21:50:00
10:20 PM,30.2,30.2,100,29.30,2.8,WNW,3.5,-,N/A,Snow,Light Snow,290,2013-01-20 22:20:00
10:50 PM,30.2,30.2,100,29.30,3.1,WNW,4.6,-,N/A,Snow,Light Snow,290,2013-01-20 22:50:00
11:20 PM,30.2,30.2,100,29.30,5.6,WNW,4.6,-,N/A,,Mostly Cloudy,300,2013-01-20 23:20:00
11:50 PM,31,29,92,29.30,4,WNW,3.5,,,Rain,Freezing Rain,290,2013-01-20 23:50:00
11:50 PM,30.2,30.2,100,29.30,5.6,WNW,4.6,-,N/A,,Mostly Cloudy,290,2013-01-20 23:50:00